createdAt,value
2018-09-29T00:04:10.438Z,1.40
2018-09-29T00:09:14.052Z,1.30
2018-09-29T00:14:17.693Z,2.17
2018-09-29T00:19:21.516Z,1.37
2018-09-29T00:24:25.132Z,1.80
2018-09-29T00:29:28.855Z,1.50
2018-09-29T00:34:32.446Z,2.40
2018-09-29T00:39:36.083Z,1.20
2018-09-29T00:44:39.798Z,1.33
2018-09-29T00:49:43.424Z,1.43
2018-09-29T00:54:47.011Z,1.63
2018-09-29T00:59:50.627Z,1.20
2018-09-29T01:04:54.275Z,1.67
2018-09-29T01:09:57.992Z,1.20
2018-09-29T01:15:01.702Z,1.03
2018-09-29T01:20:05.432Z,1.57
2018-09-29T01:25:09.119Z,1.63
2018-09-29T01:30:12.740Z,1.60
2018-09-29T01:35:16.376Z,1.40
2018-09-29T01:40:20.063Z,1.87
2018-09-29T01:45:23.713Z,1.33
2018-09-29T01:50:27.424Z,1.77
2018-09-29T01:55:31.061Z,1.50
2018-09-29T02:00:34.675Z,3.33
2018-09-29T02:05:38.804Z,1.27
2018-09-29T02:10:42.474Z,1.13
2018-09-29T02:15:46.115Z,1.47
2018-09-29T02:20:49.722Z,1.20
2018-09-29T02:25:53.454Z,1.60
2018-09-29T02:30:57.075Z,1.40
2018-09-29T02:36:00.811Z,1.27
2018-09-29T02:41:04.419Z,1.30
2018-09-29T02:46:08.031Z,2.10
2018-09-29T02:51:11.767Z,1.03
2018-09-29T02:56:15.483Z,1.20
2018-09-29T03:01:19.090Z,1.40
2018-09-29T03:06:22.820Z,1.80
2018-09-29T03:11:26.420Z,2.27
2018-09-29T03:16:30.025Z,2.23
2018-09-29T03:21:33.664Z,2.50
2018-09-29T03:26:37.282Z,3.00
2018-09-29T03:31:40.948Z,2.43
2018-09-29T03:36:44.625Z,2.30
2018-09-29T03:41:48.224Z,2.87
2018-09-29T03:46:51.833Z,2.70
2018-09-29T03:51:55.456Z,3.00
2018-09-29T03:56:59.186Z,3.60
2018-09-29T04:02:02.815Z,3.47
2018-09-29T04:07:06.532Z,3.77
2018-09-29T04:12:10.132Z,3.50
2018-09-29T04:17:13.723Z,2.63
2018-09-29T04:22:17.387Z,2.97
2018-09-29T04:27:21.068Z,2.30
2018-09-29T04:32:24.681Z,3.40
2018-09-29T04:37:28.300Z,2.63
2018-09-29T04:42:31.960Z,2.00
2018-09-29T04:47:35.571Z,1.93
2018-09-29T04:52:39.291Z,1.80
2018-09-29T04:57:43.692Z,2.23
2018-09-29T05:02:47.343Z,2.50
2018-09-29T05:07:51.075Z,1.30
2018-09-29T05:12:54.673Z,1.90
2018-09-29T05:17:58.490Z,1.50
2018-09-29T05:23:02.116Z,2.23
2018-09-29T05:28:05.948Z,1.73
2018-09-29T05:33:09.549Z,1.30
2018-09-29T05:38:13.200Z,2.87
2018-09-29T05:43:18.829Z,2.10
2018-09-29T05:48:25.303Z,2.07
2018-09-29T05:53:31.553Z,1.30
2018-09-29T05:58:35.361Z,1.50
2018-09-29T06:03:39.040Z,1.40
2018-09-29T06:08:43.598Z,1.83
2018-09-29T06:13:47.217Z,1.63
2018-09-29T06:18:50.836Z,1.83
2018-09-29T06:23:54.528Z,1.70
2018-09-29T06:28:58.247Z,1.40
2018-09-29T06:34:01.857Z,1.50
2018-09-29T06:39:07.756Z,2.87
2018-09-29T06:44:11.356Z,1.33
2018-09-29T06:49:15.017Z,1.97
2018-09-29T06:54:18.684Z,1.70
2018-09-29T06:59:22.309Z,1.33
2018-09-29T07:04:26.030Z,1.83
2018-09-29T07:09:29.639Z,1.70
2018-09-29T07:14:33.241Z,1.90
2018-09-29T07:19:36.837Z,1.67
2018-09-29T07:24:40.475Z,2.33
2018-09-29T07:29:44.220Z,1.20
2018-09-29T07:34:47.936Z,1.60
2018-09-29T07:39:51.556Z,1.40
2018-09-29T07:44:55.272Z,1.60
2018-09-29T07:49:58.942Z,1.30
2018-09-29T07:55:02.713Z,2.70
2018-09-29T08:00:07.167Z,1.87
2018-09-29T08:05:10.825Z,2.10
2018-09-29T08:10:14.433Z,1.20
2018-09-29T08:15:18.100Z,1.20
2018-09-29T08:20:21.796Z,2.00
2018-09-29T08:25:25.480Z,1.37
2018-09-29T08:30:29.130Z,1.20
2018-09-29T08:35:32.879Z,1.30
2018-09-29T08:40:36.496Z,1.60
2018-09-29T08:45:40.573Z,1.33
2018-09-29T08:50:44.353Z,1.63
2018-09-29T08:55:48.067Z,1.10
2018-09-29T09:00:51.680Z,1.73
2018-09-29T09:05:55.391Z,1.10
2018-09-29T09:10:59.116Z,1.10
2018-09-29T09:16:03.215Z,2.00
2018-09-29T09:21:06.963Z,1.13
2018-09-29T09:26:10.679Z,1.73
2018-09-29T09:31:14.304Z,0.90
2018-09-29T09:36:18.128Z,1.23
2018-09-29T09:41:21.777Z,1.23
2018-09-29T09:46:25.364Z,1.20
2018-09-29T09:51:28.986Z,1.30
2018-09-29T09:56:32.691Z,1.00
2018-09-29T10:01:41.800Z,0.70
2018-09-29T10:06:45.457Z,1.07
2018-09-29T10:11:49.176Z,0.90
2018-09-29T10:16:52.881Z,0.80
2018-09-29T10:21:56.505Z,0.70
2018-09-29T10:27:00.128Z,1.10
2018-09-29T10:32:03.784Z,1.33
2018-09-29T10:37:07.458Z,1.10
2018-09-29T10:42:11.084Z,1.10
2018-09-29T10:47:14.931Z,0.90
2018-09-29T10:52:18.552Z,1.13
2018-09-29T10:57:22.397Z,1.00
2018-09-29T11:02:26.073Z,1.13
2018-09-29T11:07:29.784Z,1.10
2018-09-29T11:12:33.420Z,0.77
2018-09-29T11:17:37.028Z,1.20
2018-09-29T11:22:40.737Z,1.00
2018-09-29T11:27:44.580Z,1.03
2018-09-29T11:32:48.624Z,0.87
2018-09-29T11:37:52.367Z,0.70
2018-09-29T11:42:56.647Z,1.10
2018-09-29T11:48:00.264Z,1.10
2018-09-29T11:53:03.880Z,0.63
2018-09-29T11:58:07.496Z,1.10
2018-09-29T12:03:11.118Z,0.87
2018-09-29T12:08:14.728Z,0.90
2018-09-29T12:13:18.430Z,0.77
2018-09-29T12:18:22.056Z,0.90
2018-09-29T12:23:25.693Z,0.80
2018-09-29T12:28:29.315Z,1.13
2018-09-29T12:33:33.016Z,1.00
2018-09-29T12:38:36.614Z,0.80
2018-09-29T12:43:40.249Z,0.80
2018-09-29T12:48:43.835Z,0.60
2018-09-29T12:53:47.453Z,1.10
2018-09-29T12:58:51.148Z,0.90
2018-09-29T13:03:54.724Z,0.90
2018-09-29T13:08:58.352Z,0.63
2018-09-29T13:14:02.291Z,0.70
2018-09-29T13:19:06.381Z,0.80
2018-09-29T13:24:10.094Z,0.90
2018-09-29T13:29:13.854Z,0.80
2018-09-29T13:34:17.515Z,0.83
2018-09-29T13:39:21.147Z,1.60
2018-09-29T13:44:24.883Z,1.03
2018-09-29T13:49:28.616Z,0.90
2018-09-29T13:54:32.217Z,0.87
2018-09-29T13:59:36.059Z,0.70
2018-09-29T14:04:39.671Z,1.10
2018-09-29T14:09:43.288Z,0.77
2018-09-29T14:14:47.028Z,1.03
2018-09-29T14:19:50.631Z,0.83
2018-09-29T14:24:54.339Z,0.73
2018-09-29T14:29:58.075Z,0.60
2018-09-29T14:35:01.661Z,0.70
2018-09-29T14:40:05.716Z,0.80
2018-09-29T14:45:09.415Z,1.47
2018-09-29T14:50:13.004Z,0.70
2018-09-29T14:55:16.743Z,1.10
2018-09-29T15:00:20.387Z,0.80
2018-09-29T15:05:24.085Z,0.80
2018-09-29T15:10:27.707Z,1.10
2018-09-29T15:15:31.346Z,1.00
2018-09-29T15:20:34.984Z,0.90
2018-09-29T15:25:38.727Z,0.80
2018-09-29T15:30:42.424Z,1.00
2018-09-29T15:35:46.135Z,0.83
2018-09-29T15:40:49.780Z,0.93
2018-09-29T15:45:53.536Z,0.90
2018-09-29T15:50:57.171Z,0.60
2018-09-29T15:56:00.985Z,0.80
2018-09-29T16:01:04.655Z,0.87
2018-09-29T16:06:08.309Z,0.70
2018-09-29T16:11:11.950Z,0.70
2018-09-29T16:16:15.656Z,0.80
2018-09-29T16:21:19.309Z,1.00
2018-09-29T16:26:22.975Z,0.90
2018-09-29T16:31:26.590Z,0.80
2018-09-29T16:36:30.229Z,1.17
2018-09-29T16:41:33.907Z,1.30
2018-09-29T16:46:37.995Z,1.13
2018-09-29T16:51:41.613Z,0.80
2018-09-29T16:56:45.257Z,1.03
2018-09-29T17:01:48.885Z,1.00
2018-09-29T17:06:52.568Z,1.07
2018-09-29T17:11:56.208Z,1.33
2018-09-29T17:16:59.890Z,1.13
2018-09-29T17:22:03.574Z,0.90
2018-09-29T17:27:07.405Z,1.77
2018-09-29T17:32:11.044Z,1.87
2018-09-29T17:37:14.761Z,1.63
2018-09-29T17:42:18.404Z,1.13
2018-09-29T17:47:22.018Z,1.70
2018-09-29T17:52:25.644Z,11.30
2018-09-29T17:57:29.280Z,8.57
2018-09-29T18:02:32.915Z,9.50
2018-09-29T18:07:36.610Z,10.77
2018-09-29T18:12:40.293Z,9.23
2018-09-29T18:17:43.944Z,8.80
2018-09-29T18:22:47.976Z,7.97
2018-09-29T18:27:51.633Z,6.67
2018-09-29T18:32:56.225Z,6.13
2018-09-29T18:37:59.927Z,4.87
2018-09-29T18:43:03.690Z,4.50
2018-09-29T18:48:07.362Z,3.90
2018-09-29T18:53:11.100Z,3.93
2018-09-29T18:58:14.766Z,3.57
2018-09-29T19:03:18.606Z,3.23
2018-09-29T19:08:22.214Z,3.63
2018-09-29T19:13:26.740Z,3.57
2018-09-29T19:18:30.706Z,3.53
2018-09-29T19:23:34.396Z,3.60
2018-09-29T19:28:38.342Z,3.70
2018-09-29T19:33:41.983Z,3.47
2018-09-29T19:38:45.595Z,4.50
2018-09-29T19:43:49.304Z,3.70
2018-09-29T19:48:52.983Z,4.40
2018-09-29T19:53:56.524Z,5.03
2018-09-29T19:59:00.159Z,4.80
2018-09-29T20:04:04.152Z,5.00
2018-09-29T20:09:08.496Z,4.80
2018-09-29T20:14:12.182Z,4.50
2018-09-29T20:19:15.807Z,5.13
2018-09-29T20:24:19.645Z,5.20
2018-09-29T20:29:23.203Z,5.23
2018-09-29T20:34:26.842Z,6.07
2018-09-29T20:39:30.552Z,5.23
2018-09-29T20:44:34.286Z,6.93
2018-09-29T20:49:37.976Z,6.40
2018-09-29T20:54:41.641Z,7.10
2018-09-29T20:59:45.281Z,6.57
2018-09-29T21:04:49.150Z,7.30
2018-09-29T21:09:53.366Z,8.20
2018-09-29T21:14:57.134Z,6.70
2018-09-29T21:20:00.872Z,7.00
2018-09-29T21:25:04.641Z,6.83
2018-09-29T21:30:08.420Z,7.10
2018-09-29T21:35:12.156Z,7.60
2018-09-29T21:40:15.808Z,7.20
2018-09-29T21:45:19.430Z,7.33
2018-09-29T21:50:23.169Z,7.00
2018-09-29T21:55:26.840Z,7.47
2018-09-29T22:00:36.143Z,7.33
2018-09-29T22:05:40.041Z,7.50
2018-09-29T22:10:44.264Z,8.07
2018-09-29T22:15:50.155Z,7.53
2018-09-29T22:20:53.924Z,8.03
2018-09-29T22:25:57.583Z,7.10
2018-09-29T22:31:01.377Z,7.17
2018-09-29T22:36:05.544Z,7.27
2018-09-29T22:41:09.539Z,6.77
2018-09-29T22:46:13.310Z,7.10
2018-09-29T22:51:16.925Z,7.40
2018-09-29T22:56:20.635Z,6.83
2018-09-29T23:01:24.683Z,7.23
2018-09-29T23:06:28.324Z,7.07
2018-09-29T23:11:31.983Z,6.17
2018-09-29T23:16:35.716Z,6.10
2018-09-29T23:21:39.659Z,5.70
2018-09-29T23:26:43.285Z,5.33
2018-09-29T23:31:47.211Z,4.93
2018-09-29T23:36:50.900Z,5.63
2018-09-29T23:41:54.528Z,5.67
2018-09-29T23:46:58.222Z,4.97
2018-09-29T23:52:01.872Z,4.80
2018-09-29T23:57:05.487Z,5.00
